Furman, Alabama
Current Conditions -  °F | °C
As of 12:56 PM on Friday 21 Nov 2014 (Local Time) from KPRN Reporting Station
Clear Clear  
Wind Chill: 69°   Ceiling: Unl
Heat Index: 69°   Visibility: 10mi
Dew Point: 42°   Wind: 9mph
Humidity: 38%   Direction: 120°ESE
Pressure: 30.3"   Gusts: NA
Location:  32.01°N, 86.97°W
Report Text: KPRN 211856Z AUTO 12008KT 10SM CLR 21/06 A3030 RMK AO2 SLP259 T02060056
Loading
Personal Weather Stations






























Interactive Weather Map New forecast layout! Learn more

10-Day Weather Forecast

Advertisements
Track Severe Weather on mobile